Time;durP1;ratioP1;P1;durP2;ratioP2;P2;SDS_P1;SDS_P2;PMS_P1;PMS_P2;Temp;Humidity;BMP_temperature;BMP_pressure;BME280_temperature;BME280_humidity;BME280_pressure;Samples;Min_cycle;Max_cycle;Signal;HPM_P1;HPM_P2
2022/02/02 00:00:44;;;;;;;1.17;0.90;;;6.60;68.60;;;;;;5008529;28;20042;-69
2022/02/02 00:03:11;;;;;;;1.20;0.90;;;6.60;68.80;;;;;;5007609;28;20039;-68
2022/02/02 02:22:45;;;;;;;3.15;1.25;;;7.20;69.90;;;;;;4913420;27;1361893;-73
2022/02/02 02:25:19;;;;;;;2.00;1.00;;;7.20;72.60;;;;;;5123432;28;20414;-67
2022/02/02 02:27:45;;;;;;;3.20;1.50;;;7.10;74.30;;;;;;5106354;28;20016;-71
2022/02/02 02:30:21;;;;;;;2.90;1.42;;;7.10;76.80;;;;;;5105395;28;20372;-67
2022/02/02 02:33:12;;;;;;;2.78;1.67;;;7.10;76.60;;;;;;5103611;28;20027;-68
2022/02/02 02:57:16;;;;;;;1.77;1.30;;;6.90;76.80;;;;;;5103848;28;20089;-67
2022/02/02 03:00:07;;;;;;;1.70;1.23;;;6.90;76.80;;;;;;5107202;28;20027;-67
2022/02/02 03:29:55;;;;;;;2.63;2.00;;;6.70;76.60;;;;;;5113792;28;20066;-66
2022/02/02 03:59:03;;;;;;;2.63;1.80;;;6.80;76.40;;;;;;5093661;28;20375;-66
2022/02/02 04:04:26;;;;;;;3.45;1.98;;;6.90;76.20;;;;;;5111982;28;20036;-66
2022/02/02 04:07:05;;;;;;;3.42;2.58;;;6.90;76.40;;;;;;5109435;28;20028;-74
2022/02/02 04:09:35;;;;;;;5.00;1.90;;;6.90;76.40;;;;;;5101188;28;20058;-69
2022/02/02 04:12:33;;;;;;;3.17;1.80;;;7.00;76.20;;;;;;5092184;28;20027;-66
2022/02/02 04:16:06;;;;;;;3.08;1.73;;;7.10;76.10;;;;;;5106493;28;20024;-68
2022/02/02 04:18:08;;;;;;;4.45;2.10;;;7.10;75.80;;;;;;5109993;28;20030;-66
2022/02/02 05:09:04;;;;;;;2.95;1.60;;;7.50;75.90;;;;;;5109014;28;20019;-66
2022/02/02 05:19:24;;;;;;;2.55;1.35;;;7.50;76.60;;;;;;5106727;28;20074;-67
2022/02/02 05:43:51;;;;;;;1.00;0.80;;;7.20;78.30;;;;;;5105533;28;20020;-66
2022/02/02 05:51:22;;;;;;;2.85;1.02;;;7.30;76.50;;;;;;5109673;28;20023;-66
2022/02/02 05:53:49;;;;;;;1.25;0.70;;;7.30;76.00;;;;;;5109213;28;20031;-65
2022/02/02 05:56:15;;;;;;;1.20;0.70;;;7.30;75.70;;;;;;5105755;28;20020;-68
2022/02/02 05:58:44;;;;;;;1.60;0.70;;;7.40;75.50;;;;;;5081060;28;20341;-66
2022/02/02 06:01:11;;;;;;;1.65;0.82;;;7.40;75.50;;;;;;5110923;28;20023;-66
2022/02/02 06:03:52;;;;;;;2.70;1.08;;;7.50;75.50;;;;;;5106892;28;20034;-66
2022/02/02 06:06:21;;;;;;;1.80;0.90;;;7.50;75.40;;;;;;5108493;28;20103;-67
2022/02/02 06:08:49;;;;;;;1.38;0.90;;;7.50;75.50;;;;;;5100396;28;20027;-66
2022/02/02 06:11:25;;;;;;;1.65;0.90;;;7.50;75.80;;;;;;5107164;28;20073;-68
2022/02/02 06:13:54;;;;;;;2.03;0.82;;;7.60;76.80;;;;;;5089213;28;20020;-63
2022/02/02 06:16:22;;;;;;;1.50;0.80;;;7.60;77.20;;;;;;5104984;28;20649;-66
2022/02/02 06:18:59;;;;;;;6.15;0.85;;;7.50;77.20;;;;;;5110676;28;20102;-66
2022/02/02 06:21:32;;;;;;;5.72;1.10;;;7.50;77.20;;;;;;5104565;28;20096;-65
2022/02/02 06:24:12;;;;;;;5.55;1.35;;;7.60;77.20;;;;;;5102571;28;20160;-66
2022/02/02 06:26:45;;;;;;;3.25;1.10;;;7.60;76.90;;;;;;5109883;28;20047;-66
2022/02/02 06:29:12;;;;;;;4.93;1.33;;;7.60;76.40;;;;;;5110124;28;20028;-67
2022/02/02 06:31:39;;;;;;;2.67;0.90;;;7.70;76.30;;;;;;5091966;28;20055;-68
2022/02/02 06:34:08;;;;;;;3.72;1.00;;;7.70;75.90;;;;;;5102971;28;20024;-66
2022/02/02 06:36:36;;;;;;;3.03;1.10;;;7.60;75.10;;;;;;5103934;28;20016;-66
2022/02/02 06:39:07;;;;;;;2.63;1.23;;;7.50;74.90;;;;;;5106414;28;20345;-68
2022/02/02 06:41:36;;;;;;;3.67;1.40;;;7.50;75.20;;;;;;5101710;28;20040;-66
2022/02/02 06:44:05;;;;;;;3.53;1.10;;;7.60;74.90;;;;;;5111463;28;20360;-66
2022/02/02 06:46:33;;;;;;;2.88;1.30;;;7.60;74.40;;;;;;5107485;28;20027;-68
2022/02/02 06:49:01;;;;;;;5.80;1.80;;;7.70;73.70;;;;;;5093729;28;20026;-67
2022/02/02 06:51:46;;;;;;;4.32;1.35;;;7.70;73.30;;;;;;5110347;28;20030;-67
2022/02/02 06:54:22;;;;;;;4.28;1.38;;;7.70;73.00;;;;;;5106769;28;20016;-67
2022/02/02 06:57:09;;;;;;;5.35;1.30;;;7.80;72.70;;;;;;5110426;28;20117;-67
2022/02/02 07:02:53;;;;;;;4.70;1.40;;;7.70;72.00;;;;;;5093731;28;20074;-67
2022/02/02 07:34:30;;;;;;;7.22;1.92;;;8.10;70.70;;;;;;5106296;28;20026;-67
2022/02/02 07:36:59;;;;;;;6.18;1.80;;;8.10;70.50;;;;;;5101997;28;20023;-67
2022/02/02 07:39:26;;;;;;;7.43;2.15;;;8.10;70.30;;;;;;5105894;28;20051;-67
2022/02/02 07:42:02;;;;;;;10.82;2.20;;;8.10;70.10;;;;;;5113076;28;20031;-67
2022/02/02 07:44:34;;;;;;;9.90;2.58;;;8.10;70.20;;;;;;5084100;28;20137;-69
2022/02/02 07:47:06;;;;;;;7.55;2.50;;;8.20;70.50;;;;;;5107392;28;20051;-70
2022/02/02 07:49:37;;;;;;;8.25;2.55;;;8.20;70.20;;;;;;5112700;28;20032;-67
2022/02/02 07:52:05;;;;;;;5.50;1.83;;;8.20;70.40;;;;;;5096775;28;20125;-68
2022/02/02 07:54:37;;;;;;;9.45;2.00;;;8.30;70.20;;;;;;5089681;28;20098;-69
2022/02/02 07:57:13;;;;;;;6.35;1.90;;;8.40;70.10;;;;;;5090459;28;20081;-68
2022/02/02 08:03:05;;;;;;;7.07;2.08;;;8.50;69.70;;;;;;5109981;28;20046;-67
2022/02/02 08:05:14;;;;;;;7.18;2.17;;;8.50;69.00;;;;;;5089405;28;20043;-66
2022/02/02 08:10:36;;;;;;;9.88;2.70;;;8.60;67.90;;;;;;5074919;28;20567;-68
2022/02/02 08:13:10;;;;;;;6.57;2.70;;;8.60;68.60;;;;;;5106128;28;20027;-67
2022/02/02 08:15:36;;;;;;;6.93;2.50;;;8.60;69.60;;;;;;5089134;28;20052;-66
2022/02/02 08:18:02;;;;;;;7.90;2.85;;;8.60;70.80;;;;;;5107421;28;20497;-68
2022/02/02 08:20:29;;;;;;;7.55;2.47;;;8.50;71.40;;;;;;5104847;28;20027;-68
2022/02/02 08:22:55;;;;;;;7.47;2.80;;;8.40;72.70;;;;;;5110060;28;20407;-70
2022/02/02 08:25:26;;;;;;;7.25;3.00;;;8.20;73.60;;;;;;5109266;28;20043;-68
2022/02/02 08:27:54;;;;;;;5.90;2.53;;;8.20;74.40;;;;;;5111577;28;20042;-70
2022/02/02 08:30:23;;;;;;;5.45;2.17;;;8.10;75.50;;;;;;5100615;28;20519;-68
2022/02/02 08:32:57;;;;;;;5.53;2.53;;;8.10;75.60;;;;;;5109294;28;20138;-69
2022/02/02 08:35:27;;;;;;;4.70;2.58;;;8.00;75.70;;;;;;5105570;28;20057;-69
2022/02/02 08:38:06;;;;;;;15.82;7.00;;;8.00;75.90;;;;;;5108238;28;20031;-68
2022/02/02 08:40:56;;;;;;;8.30;4.30;;;8.10;76.20;;;;;;5092498;28;20036;-66
2022/02/02 08:46:11;;;;;;;8.38;2.72;;;8.10;75.80;;;;;;5111072;28;20029;-69
2022/02/02 08:48:40;;;;;;;9.65;2.75;;;8.10;76.20;;;;;;5109808;28;20051;-69
2022/02/02 08:51:11;;;;;;;9.07;3.22;;;8.20;75.80;;;;;;5108002;28;20035;-67
2022/02/02 08:59:25;;;;;;;9.15;2.83;;;8.60;74.10;;;;;;5072707;28;20082;-63
2022/02/02 09:01:52;;;;;;;6.88;3.50;;;8.70;73.80;;;;;;5091656;28;20027;-61
2022/02/02 09:07:03;;;;;;;9.88;2.47;;;8.70;73.90;;;;;;5103234;28;20064;-71
2022/02/02 09:20:07;;;;;;;8.48;2.47;;;8.70;73.50;;;;;;5105362;28;20032;-63
2022/02/02 09:34:28;;;;;;;5.07;2.10;;;9.20;71.90;;;;;;5079352;28;20127;-65
2022/02/02 09:36:54;;;;;;;7.20;2.30;;;9.00;72.40;;;;;;5111092;28;20440;-68
2022/02/02 09:39:28;;;;;;;6.00;2.03;;;8.80;72.80;;;;;;5110091;28;20032;-64
2022/02/02 09:42:18;;;;;;;5.85;2.03;;;8.80;72.00;;;;;;5106285;28;20105;-63
2022/02/02 09:44:43;;;;;;;8.32;1.77;;;8.80;72.20;;;;;;5100988;28;20027;-70
2022/02/02 09:47:24;;;;;;;5.97;2.30;;;8.90;71.50;;;;;;5111028;28;20031;-64
2022/02/02 09:49:59;;;;;;;5.22;1.45;;;9.00;70.30;;;;;;5086438;28;20028;-64
2022/02/02 09:52:32;;;;;;;6.75;1.73;;;9.10;69.00;;;;;;5104992;28;20078;-65
2022/02/02 09:55:20;;;;;;;4.55;1.60;;;9.20;67.20;;;;;;5109915;28;20027;-68
2022/02/02 10:00:59;;;;;;;5.55;1.83;;;9.40;65.80;;;;;;5063972;28;20054;-66
2022/02/02 10:04:17;;;;;;;4.93;1.58;;;9.70;64.30;;;;;;5099573;28;20104;-66
2022/02/02 10:09:39;;;;;;;12.65;2.05;;;9.70;59.80;;;;;;5100412;28;20369;-65
2022/02/02 10:14:28;;;;;;;14.65;2.42;;;9.90;59.80;;;;;;5096184;28;20030;-62
2022/02/02 10:16:55;;;;;;;9.80;3.35;;;9.90;59.20;;;;;;5098672;28;20158;-61
2022/02/02 10:19:25;;;;;;;4.93;2.00;;;10.00;58.10;;;;;;5098997;28;20035;-71
2022/02/02 10:21:53;;;;;;;7.72;2.50;;;10.00;58.10;;;;;;5104015;28;20527;-71
2022/02/02 10:24:41;;;;;;;5.38;2.05;;;10.30;58.20;;;;;;5101077;28;20051;-70
2022/02/02 10:27:25;;;;;;;7.07;2.10;;;10.60;56.40;;;;;;5102459;28;20028;-72
2022/02/02 10:29:51;;;;;;;7.60;2.25;;;10.70;55.20;;;;;;5102577;28;20313;-72
2022/02/02 10:32:36;;;;;;;6.78;1.90;;;10.70;55.30;;;;;;5101599;28;20052;-72
2022/02/02 10:35:04;;;;;;;7.80;2.00;;;10.90;55.50;;;;;;5103958;28;20030;-70
2022/02/02 10:37:31;;;;;;;6.80;2.10;;;10.90;54.50;;;;;;5090618;28;20480;-71
2022/02/02 10:39:57;;;;;;;5.95;2.20;;;10.80;54.80;;;;;;5080975;28;20027;-72
2022/02/02 10:42:43;;;;;;;7.53;1.70;;;10.70;54.40;;;;;;5102888;28;20020;-71
2022/02/02 10:45:22;;;;;;;6.20;2.08;;;10.80;53.80;;;;;;5103222;28;20024;-72
2022/02/02 10:47:56;;;;;;;9.10;2.40;;;10.90;54.30;;;;;;5107223;28;20110;-72
2022/02/02 10:50:31;;;;;;;9.60;2.63;;;11.10;54.20;;;;;;5107373;28;20088;-71
2022/02/02 10:56:04;;;;;;;5.28;2.55;;;11.50;53.40;;;;;;5114394;28;20460;-71
2022/02/02 11:01:44;;;;;;;6.13;1.90;;;11.40;53.90;;;;;;5115268;28;20464;-73
2022/02/02 11:06:41;;;;;;;7.45;3.10;;;10.70;61.80;;;;;;5090023;28;20038;-73
2022/02/02 11:09:10;;;;;;;7.95;2.33;;;10.40;64.10;;;;;;5051952;28;20408;-71
2022/02/02 11:11:57;;;;;;;8.60;2.10;;;10.30;64.60;;;;;;5068841;28;20328;-71
2022/02/02 11:14:48;;;;;;;9.20;1.70;;;10.10;64.90;;;;;;5049221;28;20507;-72
2022/02/02 11:17:42;;;;;;;6.93;2.17;;;9.70;67.00;;;;;;5064575;28;20040;-71
2022/02/02 11:20:11;;;;;;;10.25;2.42;;;9.40;68.40;;;;;;5075840;28;20032;-72
2022/02/02 11:22:45;;;;;;;7.47;2.22;;;9.50;68.30;;;;;;5084074;28;20492;-72
2022/02/02 11:25:11;;;;;;;4.22;1.90;;;9.50;68.40;;;;;;5068447;28;21250;-70
2022/02/02 11:27:42;;;;;;;5.38;2.10;;;9.60;68.00;;;;;;5066691;28;20028;-70
2022/02/02 11:30:30;;;;;;;7.70;1.73;;;9.80;67.50;;;;;;5070693;28;20032;-70
2022/02/02 11:32:59;;;;;;;6.32;2.08;;;10.00;67.00;;;;;;5080167;28;20484;-71
2022/02/02 11:35:33;;;;;;;5.68;2.13;;;9.90;65.40;;;;;;5082242;28;20028;-70
2022/02/02 11:38:01;;;;;;;6.85;2.17;;;9.80;66.00;;;;;;5089802;28;20376;-71
2022/02/02 11:40:28;;;;;;;6.47;2.25;;;9.70;66.50;;;;;;5109071;28;20027;-71
2022/02/02 11:43:27;;;;;;;10.00;2.25;;;9.60;66.20;;;;;;5114299;28;20031;-70
2022/02/02 11:46:00;;;;;;;5.95;2.20;;;9.50;66.80;;;;;;5097437;28;20357;-69
2022/02/02 11:48:45;;;;;;;8.43;2.13;;;9.60;66.30;;;;;;5073261;28;20032;-70
2022/02/02 11:51:10;;;;;;;7.47;2.90;;;9.60;65.90;;;;;;5104021;28;20141;-70
2022/02/02 11:53:48;;;;;;;6.13;2.60;;;9.60;66.30;;;;;;5088099;28;20024;-71
2022/02/02 11:56:15;;;;;;;6.60;1.95;;;9.70;65.60;;;;;;5069794;28;20040;-70
2022/02/02 11:58:42;;;;;;;4.68;1.63;;;9.70;64.60;;;;;;5113371;28;20076;-71
2022/02/02 12:08:59;;;;;;;4.00;1.38;;;9.60;62.70;;;;;;5114296;28;20035;-72
2022/02/02 12:18:57;;;;;;;5.85;2.00;;;9.70;61.30;;;;;;5100457;28;20019;-70
2022/02/02 12:45:56;;;;;;;4.63;1.83;;;9.10;61.30;;;;;;5111900;28;20394;-72
2022/02/02 12:48:05;;;;;;;2.90;1.17;;;9.00;61.50;;;;;;5112287;28;20428;-70
2022/02/02 12:56:32;;;;;;;3.25;1.25;;;8.80;62.50;;;;;;5105462;28;20104;-70
2022/02/02 13:02:07;;;;;;;4.07;1.55;;;9.20;62.10;;;;;;5107791;28;20123;-70
2022/02/02 13:04:33;;;;;;;5.93;1.60;;;9.20;61.20;;;;;;5104975;28;20114;-68
2022/02/02 13:07:19;;;;;;;7.53;2.38;;;9.20;61.90;;;;;;5081034;28;20442;-68
2022/02/02 13:09:48;;;;;;;4.93;1.70;;;9.30;62.40;;;;;;5107631;28;20414;-68
2022/02/02 13:12:20;;;;;;;3.78;1.65;;;9.30;61.90;;;;;;5106085;28;20039;-70
2022/02/02 13:15:08;;;;;;;9.02;1.52;;;9.30;61.50;;;;;;5094025;28;20051;-69
2022/02/02 13:23:35;;;;;;;4.82;1.45;;;9.00;61.50;;;;;;5111550;28;20048;-69
2022/02/02 13:26:05;;;;;;;6.28;1.50;;;9.00;61.90;;;;;;5105361;28;20083;-69
2022/02/02 13:29:12;;;;;;;3.85;1.55;;;8.90;61.50;;;;;;5100075;28;20054;-70
2022/02/02 13:32:00;;;;;;;6.18;2.00;;;8.90;61.50;;;;;;5106277;28;20032;-69
2022/02/02 13:46:38;;;;;;;4.57;1.70;;;8.90;60.90;;;;;;5090360;28;20088;-68
2022/02/02 13:49:19;;;;;;;5.20;1.88;;;9.00;60.60;;;;;;5104138;28;20148;-68
2022/02/02 13:54:42;;;;;;;7.53;2.03;;;9.20;59.60;;;;;;5111781;28;20051;-68
2022/02/02 14:31:08;;;;;;;11.13;2.40;;;9.60;57.50;;;;;;5110668;28;20054;-67
2022/02/02 14:32:49;;;;;;;9.93;2.80;;;9.70;57.00;;;;;;5107280;28;20495;-67
2022/02/02 14:35:17;;;;;;;10.88;2.40;;;9.70;57.10;;;;;;5104937;28;20040;-69
2022/02/02 14:37:43;;;;;;;12.63;2.47;;;9.70;56.80;;;;;;5090588;28;20032;-68
2022/02/02 14:40:20;;;;;;;10.48;3.22;;;9.80;56.80;;;;;;5110261;28;20042;-68
2022/02/02 14:42:50;;;;;;;8.43;2.63;;;9.80;56.60;;;;;;5087167;28;20071;-69
2022/02/02 14:45:20;;;;;;;7.25;1.52;;;9.80;56.60;;;;;;5090103;28;20114;-67
2022/02/02 14:47:49;;;;;;;6.80;1.63;;;9.60;57.40;;;;;;5087941;28;20410;-70
2022/02/02 14:50:28;;;;;;;4.47;1.70;;;9.50;58.20;;;;;;5108742;28;20035;-71
2022/02/02 15:09:29;;;;;;;8.80;2.47;;;9.10;59.30;;;;;;5097984;28;20035;-63
2022/02/02 15:28:16;;;;;;;15.88;8.18;;;9.00;60.20;;;;;;5093579;28;20040;-60
2022/02/02 15:33:22;;;;;;;6.95;2.03;;;9.00;60.40;;;;;;5109170;28;20305;-58
2022/02/02 15:35:52;;;;;;;6.20;2.00;;;9.10;61.20;;;;;;5094366;28;20023;-59
2022/02/02 15:38:23;;;;;;;6.75;2.45;;;9.10;61.90;;;;;;5112552;28;20019;-62
2022/02/02 15:40:55;;;;;;;8.60;2.20;;;9.00;62.40;;;;;;5075243;28;20036;-57
2022/02/02 15:43:32;;;;;;;7.63;2.45;;;9.00;62.10;;;;;;5087901;28;20098;-64
2022/02/02 16:02:30;;;;;;;6.45;2.20;;;9.10;60.20;;;;;;5109257;28;20039;-65
2022/02/02 16:04:57;;;;;;;8.05;2.03;;;9.10;59.70;;;;;;5099297;28;20034;-65
2022/02/02 16:07:27;;;;;;;9.27;2.33;;;9.00;59.30;;;;;;5097068;28;20086;-65
2022/02/02 16:09:56;;;;;;;8.15;2.20;;;9.00;59.50;;;;;;5111775;28;20024;-61
2022/02/02 16:12:30;;;;;;;6.53;2.47;;;9.00;59.00;;;;;;5085734;28;20348;-64
2022/02/02 16:15:15;;;;;;;6.28;2.38;;;8.90;59.30;;;;;;5105350;28;20053;-64
2022/02/02 16:37:10;;;;;;;12.85;2.72;;;8.30;59.80;;;;;;5097072;28;20123;-63
2022/02/02 16:39:21;;;;;;;6.88;1.73;;;8.20;59.90;;;;;;5090405;28;20109;-62
2022/02/02 16:44:31;;;;;;;;;;;8.00;60.40;;;;;;5111305;27;20437;-62
2022/02/02 16:46:57;;;;;;;12.48;3.10;;;8.10;60.40;;;;;;5109185;28;19994;-63
2022/02/02 16:49:23;;;;;;;7.38;2.00;;;8.00;60.60;;;;;;5101175;28;20036;-67
2022/02/02 16:51:50;;;;;;;10.25;2.20;;;8.00;60.40;;;;;;5111373;28;20028;-64
2022/02/02 16:54:23;;;;;;;6.55;2.13;;;7.90;60.40;;;;;;5111019;28;20042;-60
2022/02/02 17:32:36;;;;;;;7.85;2.00;;;7.90;58.80;;;;;;5109925;27;20027;-61
2022/02/02 17:34:54;;;;;;;7.15;2.58;;;7.90;58.20;;;;;;5101793;28;20173;-63
2022/02/02 17:40:10;;;;;;;8.27;2.80;;;7.90;58.10;;;;;;5105335;28;20055;-62
2022/02/02 17:43:10;;;;;;;8.05;2.60;;;7.80;58.20;;;;;;5085354;28;20040;-61
2022/02/02 17:45:44;;;;;;;7.25;2.30;;;7.80;58.50;;;;;;5103899;28;20066;-64
2022/02/02 18:20:43;;;;;;;8.57;2.50;;;7.50;60.60;;;;;;5102757;28;20035;-63
2022/02/02 18:28:23;;;;;;;8.18;2.80;;;7.50;61.10;;;;;;5102368;28;20085;-60
2022/02/02 18:31:03;;;;;;;7.95;2.33;;;7.50;61.30;;;;;;5099802;28;20035;-64
2022/02/02 18:54:18;;;;;;;5.63;2.03;;;7.60;61.50;;;;;;5107156;28;20039;-64
2022/02/02 18:57:07;;;;;;;7.18;2.00;;;7.50;61.60;;;;;;5106393;28;20028;-64
2022/02/02 19:02:46;;;;;;;6.20;2.15;;;7.40;61.80;;;;;;5107697;28;20488;-63
2022/02/02 19:56:59;;;;;;;12.90;2.00;;;7.20;59.70;;;;;;5078159;28;20483;-64
2022/02/02 20:04:58;;;;;;;7.03;2.15;;;7.20;59.80;;;;;;5108374;28;20024;-62
2022/02/02 20:07:31;;;;;;;6.47;2.25;;;7.20;59.90;;;;;;5109291;28;20084;-66
2022/02/02 20:12:29;;;;;;;9.93;2.72;;;7.20;59.70;;;;;;5113594;28;20028;-63
2022/02/02 20:14:59;;;;;;;7.53;2.00;;;7.20;59.60;;;;;;5107955;28;20027;-68
2022/02/02 20:17:26;;;;;;;7.50;2.40;;;7.20;59.60;;;;;;5111742;28;20027;-67
2022/02/02 20:20:10;;;;;;;6.63;2.60;;;7.20;59.70;;;;;;5108292;28;20031;-64
2022/02/02 20:22:45;;;;;;;;;;;7.20;59.80;;;;;;5109172;28;20130;-68
2022/02/02 20:25:19;;;;;;;8.65;2.72;;;7.20;59.50;;;;;;5110055;28;19952;-67
2022/02/02 20:27:53;;;;;;;7.93;1.98;;;7.20;59.30;;;;;;5106886;28;20085;-64
2022/02/02 20:30:19;;;;;;;9.05;2.97;;;7.10;59.40;;;;;;5111701;28;20027;-65
2022/02/02 20:32:44;;;;;;;7.22;2.35;;;7.10;59.50;;;;;;5109335;28;20077;-65
2022/02/02 20:35:10;;;;;;;6.35;2.05;;;7.10;59.40;;;;;;5098453;28;20024;-63
2022/02/02 20:37:36;;;;;;;7.45;2.50;;;7.10;59.20;;;;;;5108246;28;20472;-64
2022/02/02 20:40:06;;;;;;;5.85;1.80;;;7.00;59.30;;;;;;5103476;28;20078;-63
2022/02/02 21:14:41;;;;;;;6.03;2.05;;;7.00;58.20;;;;;;5111804;28;20032;-63
2022/02/02 21:17:17;;;;;;;7.30;2.15;;;7.00;58.30;;;;;;5111026;28;20043;-63
2022/02/02 21:22:14;;;;;;;10.20;2.65;;;7.00;58.50;;;;;;5110245;28;20381;-63
2022/02/02 21:27:23;;;;;;;10.32;2.47;;;7.10;58.50;;;;;;5106195;28;20039;-64
2022/02/02 21:29:49;;;;;;;8.63;2.78;;;7.20;58.30;;;;;;5111233;28;20031;-63
2022/02/02 21:32:17;;;;;;;8.13;2.20;;;7.20;58.10;;;;;;5108709;28;20151;-63
2022/02/02 21:34:42;;;;;;;9.48;2.47;;;7.30;58.20;;;;;;5108834;28;20038;-64
2022/02/02 21:37:09;;;;;;;11.35;3.00;;;7.20;58.20;;;;;;5107081;28;20012;-63
2022/02/02 21:39:38;;;;;;;8.48;2.15;;;7.30;58.40;;;;;;5111366;28;20416;-65
2022/02/02 21:42:04;;;;;;;9.15;2.17;;;7.30;58.10;;;;;;5106619;28;20031;-66
2022/02/02 21:44:30;;;;;;;7.97;2.53;;;7.30;58.00;;;;;;5107809;28;20024;-65
2022/02/02 21:46:57;;;;;;;13.27;2.55;;;7.30;57.90;;;;;;5103959;28;20456;-64
2022/02/02 21:49:24;;;;;;;13.20;2.78;;;7.30;57.80;;;;;;5105994;28;20925;-64
2022/02/02 21:54:23;;;;;;;9.27;2.42;;;7.40;57.60;;;;;;5110236;28;20227;-65
2022/02/02 21:56:49;;;;;;;8.85;2.28;;;7.40;57.30;;;;;;5111127;28;20072;-64
2022/02/02 21:59:14;;;;;;;7.05;2.28;;;7.40;57.60;;;;;;5106897;28;20032;-64
2022/02/02 22:01:59;;;;;;;10.70;2.60;;;7.50;57.10;;;;;;5110728;28;20036;-65
2022/02/02 22:04:25;;;;;;;9.95;2.13;;;7.50;57.00;;;;;;5107498;28;20035;-65
2022/02/02 22:06:50;;;;;;;8.68;2.20;;;7.60;56.70;;;;;;5105206;28;20045;-65
2022/02/02 22:09:16;;;;;;;8.68;2.25;;;7.50;56.60;;;;;;5109716;28;20073;-64
2022/02/02 22:11:42;;;;;;;11.20;2.20;;;7.50;56.60;;;;;;5110481;28;20032;-64
2022/02/02 22:14:14;;;;;;;8.68;2.28;;;7.60;56.70;;;;;;5088396;28;20027;-65
2022/02/02 22:16:41;;;;;;;11.05;2.40;;;7.60;56.50;;;;;;5111013;28;20532;-64
2022/02/02 22:19:07;;;;;;;8.35;2.35;;;7.50;56.60;;;;;;5107095;28;20020;-65
2022/02/02 22:21:33;;;;;;;9.80;2.53;;;7.60;56.50;;;;;;5103993;28;20023;-65
2022/02/02 22:24:02;;;;;;;8.25;2.42;;;7.60;56.50;;;;;;5110054;28;20054;-63
2022/02/02 22:26:29;;;;;;;6.85;2.30;;;7.60;56.70;;;;;;5085162;28;20090;-64
2022/02/02 22:28:55;;;;;;;9.10;2.30;;;7.60;56.50;;;;;;5103012;28;20096;-64
2022/02/02 22:31:21;;;;;;;11.25;2.53;;;7.60;56.70;;;;;;5105566;28;20016;-64
2022/02/02 22:33:47;;;;;;;5.85;2.05;;;7.60;56.80;;;;;;5111017;28;20395;-65
2022/02/02 22:36:13;;;;;;;8.40;2.42;;;7.50;57.00;;;;;;5101144;28;20024;-64
2022/02/02 22:38:42;;;;;;;6.80;2.85;;;7.50;57.20;;;;;;5110009;28;20028;-64
2022/02/02 22:41:09;;;;;;;8.00;2.40;;;7.50;57.30;;;;;;5113032;28;20055;-65
2022/02/02 22:43:42;;;;;;;6.97;2.10;;;7.50;57.50;;;;;;5112354;28;20484;-65
2022/02/02 22:46:08;;;;;;;12.10;2.23;;;7.50;57.70;;;;;;5104635;28;20032;-65
2022/02/02 22:48:36;;;;;;;6.82;2.20;;;7.40;58.00;;;;;;5113371;28;20910;-64
2022/02/02 22:51:01;;;;;;;6.32;2.22;;;7.40;58.10;;;;;;5108719;28;20020;-65
2022/02/02 22:53:27;;;;;;;9.75;2.42;;;7.50;58.20;;;;;;5108905;28;20289;-64
2022/02/02 22:55:53;;;;;;;8.63;2.22;;;7.40;58.30;;;;;;5110399;28;20038;-62
2022/02/02 22:58:19;;;;;;;6.90;2.08;;;7.40;58.50;;;;;;5114794;28;20027;-64
2022/02/02 23:00:46;;;;;;;7.78;2.53;;;7.30;58.70;;;;;;5104071;28;20028;-63
2022/02/02 23:03:16;;;;;;;7.57;2.25;;;7.30;58.80;;;;;;5089534;28;20113;-63
2022/02/02 23:05:45;;;;;;;11.13;2.78;;;7.30;58.70;;;;;;5103964;28;20063;-63
2022/02/02 23:08:14;;;;;;;7.65;2.13;;;7.30;58.60;;;;;;5113667;28;20468;-64
2022/02/02 23:10:41;;;;;;;4.93;2.00;;;7.30;58.50;;;;;;5107486;28;20499;-63
2022/02/02 23:13:09;;;;;;;8.18;2.22;;;7.20;58.70;;;;;;5104842;28;20027;-63
2022/02/02 23:15:41;;;;;;;6.72;2.10;;;7.10;59.00;;;;;;5100399;28;20061;-64
2022/02/02 23:18:18;;;;;;;7.97;1.92;;;7.10;58.80;;;;;;5108746;28;20027;-63
2022/02/02 23:20:48;;;;;;;10.52;2.50;;;7.20;58.90;;;;;;5107550;28;20021;-62
2022/02/02 23:23:22;;;;;;;7.30;2.47;;;7.10;58.70;;;;;;5079157;28;20044;-63
2022/02/02 23:25:48;;;;;;;;;;;7.10;58.60;;;;;;5085418;28;20127;-62
2022/02/02 23:28:29;;;;;;;7.07;2.40;;;7.20;58.50;;;;;;5080345;28;20329;-62
2022/02/02 23:30:56;;;;;;;10.45;2.15;;;7.20;58.40;;;;;;5084832;28;20026;-62
2022/02/02 23:33:22;;;;;;;9.60;2.28;;;7.30;58.20;;;;;;5084384;28;20032;-62
2022/02/02 23:35:48;;;;;;;7.53;2.40;;;7.30;58.10;;;;;;5087157;28;20028;-63
2022/02/02 23:38:14;;;;;;;7.03;2.22;;;7.30;58.10;;;;;;5080913;28;20028;-66
2022/02/02 23:43:27;;;;;;;10.38;2.50;;;7.20;58.40;;;;;;5055946;28;20525;-62
2022/02/02 23:46:09;;;;;;;7.28;2.38;;;7.30;58.30;;;;;;5087168;28;20029;-63
2022/02/02 23:48:48;;;;;;;5.47;1.67;;;7.30;58.10;;;;;;5088716;28;20028;-62
2022/02/02 23:51:23;;;;;;;4.90;1.80;;;7.20;58.30;;;;;;5083864;28;20063;-65
2022/02/02 23:53:50;;;;;;;6.05;2.30;;;7.30;58.20;;;;;;5081238;28;20131;-63
2022/02/02 23:56:46;;;;;;;5.10;1.50;;;7.30;58.10;;;;;;5080906;28;20441;-63
2022/02/02 23:59:07;;;;;;;6.85;2.13;;;7.30;58.10;;;;;;5080249;28;20523;-63
